createdAt,value
2022-09-22T00:02:42.392Z,100.00
2022-09-22T00:05:45.378Z,100.00
2022-09-22T00:08:51.510Z,100.00
2022-09-22T00:11:56.241Z,100.00
2022-09-22T00:15:03.994Z,100.00
2022-09-22T00:18:09.371Z,100.00
2022-09-22T00:21:18.763Z,100.00
2022-09-22T00:24:24.167Z,100.00
2022-09-22T00:27:34.284Z,100.00
2022-09-22T00:30:42.518Z,100.00
2022-09-22T00:33:48.545Z,100.00
2022-09-22T00:36:52.228Z,100.00
2022-09-22T00:39:56.200Z,100.00
2022-09-22T00:43:20.571Z,100.00
2022-09-22T00:46:28.911Z,100.00
2022-09-22T00:49:39.215Z,100.00
2022-09-22T00:52:49.111Z,100.00
2022-09-22T00:55:58.582Z,100.00
2022-09-22T00:59:17.099Z,100.00
2022-09-22T01:02:22.680Z,100.00
2022-09-22T01:05:28.745Z,100.00
2022-09-22T01:08:35.991Z,100.00
2022-09-22T01:11:43.234Z,100.00
2022-09-22T01:15:10.750Z,100.00
2022-09-22T01:18:26.948Z,100.00
2022-09-22T01:21:42.887Z,100.00
2022-09-22T01:25:15.350Z,100.00
2022-09-22T01:28:38.591Z,100.00
2022-09-22T01:31:54.294Z,100.00
2022-09-22T01:35:07.471Z,100.00
2022-09-22T01:38:32.649Z,100.00
2022-09-22T01:41:54.698Z,100.00
2022-09-22T01:45:15.398Z,100.00
2022-09-22T01:48:35.468Z,100.00
2022-09-22T01:51:44.770Z,100.00
2022-09-22T01:54:54.235Z,100.00
2022-09-22T01:58:02.382Z,100.00
2022-09-22T02:01:14.582Z,100.00
2022-09-22T02:04:34.125Z,100.00
2022-09-22T02:07:43.941Z,100.00
2022-09-22T02:10:51.505Z,100.00
2022-09-22T02:14:02.968Z,100.00
2022-09-22T02:17:15.331Z,100.00
2022-09-22T02:20:22.359Z,100.00
2022-09-22T02:23:26.363Z,100.00
2022-09-22T02:26:40.386Z,100.00
2022-09-22T02:30:04.362Z,100.00
2022-09-22T02:33:08.972Z,100.00
2022-09-22T02:36:37.128Z,100.00
2022-09-22T02:39:44.855Z,100.00
2022-09-22T02:42:51.936Z,100.00
2022-09-22T02:46:01.541Z,100.00
2022-09-22T02:49:13.390Z,100.00
2022-09-22T02:52:22.569Z,100.00
2022-09-22T02:55:26.925Z,100.00
2022-09-22T02:58:30.109Z,100.00
2022-09-22T03:01:33.408Z,100.00
2022-09-22T03:04:37.513Z,100.00
2022-09-22T03:07:41.822Z,100.00
2022-09-22T03:10:46.243Z,100.00
2022-09-22T03:13:50.942Z,100.00
2022-09-22T03:16:54.861Z,100.00
2022-09-22T03:19:58.762Z,100.00
2022-09-22T03:23:03.846Z,100.00
2022-09-22T03:26:07.313Z,100.00
2022-09-22T03:29:10.946Z,100.00
2022-09-22T03:32:15.222Z,100.00
2022-09-22T03:35:19.126Z,100.00
2022-09-22T03:38:23.739Z,100.00
2022-09-22T03:41:27.789Z,100.00
2022-09-22T03:44:32.141Z,100.00
2022-09-22T03:47:36.039Z,100.00
2022-09-22T03:50:39.332Z,100.00
2022-09-22T03:53:44.320Z,100.00
2022-09-22T03:56:47.696Z,100.00
2022-09-22T03:59:51.602Z,100.00
2022-09-22T04:02:55.105Z,100.00
2022-09-22T04:05:58.753Z,100.00
2022-09-22T04:09:03.849Z,100.00
2022-09-22T04:12:08.148Z,100.00
2022-09-22T04:15:13.600Z,100.00
2022-09-22T04:18:19.846Z,100.00
2022-09-22T04:21:24.168Z,100.00
2022-09-22T04:24:29.449Z,100.00
2022-09-22T04:27:33.362Z,100.00
2022-09-22T04:30:37.672Z,100.00
2022-09-22T04:33:41.548Z,100.00
2022-09-22T04:36:44.848Z,100.00
2022-09-22T04:39:50.925Z,100.00
2022-09-22T04:42:55.089Z,100.00
2022-09-22T04:45:59.544Z,100.00
2022-09-22T04:49:04.287Z,100.00
2022-09-22T04:52:10.405Z,100.00
2022-09-22T04:55:17.026Z,100.00
2022-09-22T04:58:20.733Z,100.00
2022-09-22T05:01:27.589Z,100.00
2022-09-22T05:04:30.898Z,100.00
2022-09-22T05:07:33.995Z,100.00
2022-09-22T05:10:40.266Z,100.00
2022-09-22T05:13:43.648Z,100.00
2022-09-22T05:16:49.289Z,100.00
2022-09-22T05:19:54.962Z,100.00
2022-09-22T05:22:58.556Z,100.00
2022-09-22T05:26:03.882Z,100.00
2022-09-22T05:29:07.286Z,100.00
2022-09-22T05:32:10.212Z,100.00
2022-09-22T05:35:13.864Z,100.00
2022-09-22T05:38:18.555Z,100.00
2022-09-22T05:41:22.907Z,100.00
2022-09-22T05:44:25.838Z,100.00
2022-09-22T05:47:29.337Z,100.00
2022-09-22T05:50:34.721Z,100.00
2022-09-22T05:53:41.920Z,100.00
2022-09-22T05:56:47.888Z,100.00
2022-09-22T05:59:50.947Z,100.00
2022-09-22T06:02:54.702Z,100.00
2022-09-22T06:05:57.715Z,100.00
2022-09-22T06:09:01.546Z,100.00
2022-09-22T06:12:08.376Z,100.00
2022-09-22T06:15:11.874Z,100.00
2022-09-22T06:18:15.647Z,100.00
2022-09-22T06:21:20.922Z,100.00
2022-09-22T06:24:24.310Z,100.00
2022-09-22T06:27:28.944Z,100.00
2022-09-22T06:30:32.584Z,100.00
2022-09-22T06:33:36.049Z,100.00
2022-09-22T06:36:39.097Z,100.00
2022-09-22T06:39:41.888Z,100.00
2022-09-22T06:43:17.228Z,100.00
2022-09-22T06:46:20.804Z,100.00
2022-09-22T06:49:23.812Z,100.00
2022-09-22T06:52:27.365Z,100.00
2022-09-22T06:55:36.956Z,100.00
2022-09-22T06:59:08.373Z,100.00
2022-09-22T07:02:08.295Z,100.00
2022-09-22T07:05:11.786Z,100.00
2022-09-22T07:08:14.838Z,100.00
2022-09-22T07:11:23.665Z,100.00
2022-09-22T07:14:28.594Z,100.00
2022-09-22T07:17:32.845Z,100.00
2022-09-22T07:20:35.938Z,100.00
2022-09-22T07:23:39.568Z,100.00
2022-09-22T07:26:43.985Z,100.00
2022-09-22T07:29:48.984Z,100.00
2022-09-22T07:32:51.892Z,100.00
2022-09-22T07:36:05.021Z,100.00
2022-09-22T07:39:11.338Z,100.00
2022-09-22T07:42:14.592Z,100.00
2022-09-22T07:45:18.979Z,100.00
2022-09-22T07:48:45.737Z,100.00
2022-09-22T07:51:49.561Z,100.00
2022-09-22T07:54:52.560Z,100.00
2022-09-22T07:57:57.385Z,100.00
2022-09-22T08:01:06.436Z,100.00
2022-09-22T08:04:12.488Z,100.00
2022-09-22T08:07:15.559Z,100.00
2022-09-22T08:10:20.314Z,100.00
2022-09-22T08:13:23.732Z,100.00
2022-09-22T08:16:31.161Z,100.00
2022-09-22T08:19:34.501Z,100.00
2022-09-22T08:22:37.477Z,100.00
2022-09-22T08:25:40.433Z,100.00
2022-09-22T08:28:43.331Z,100.00
2022-09-22T08:31:48.049Z,100.00
2022-09-22T08:34:51.751Z,100.00
2022-09-22T08:37:54.648Z,100.00
2022-09-22T08:41:09.181Z,100.00
2022-09-22T08:44:22.973Z,100.00
2022-09-22T08:47:50.196Z,100.00
2022-09-22T08:51:14.608Z,100.00
2022-09-22T08:54:18.191Z,100.00
2022-09-22T08:57:36.794Z,100.00
2022-09-22T09:00:46.530Z,100.00
2022-09-22T09:03:58.724Z,100.00
2022-09-22T09:07:08.312Z,100.00
2022-09-22T09:10:32.905Z,100.00
2022-09-22T09:13:51.192Z,100.00
2022-09-22T09:17:00.023Z,100.00
2022-09-22T09:20:16.952Z,100.00
2022-09-22T09:23:24.701Z,100.00
2022-09-22T09:26:30.176Z,100.00
2022-09-22T09:29:36.962Z,100.00
2022-09-22T09:32:47.443Z,100.00
2022-09-22T09:35:54.398Z,100.00
2022-09-22T09:39:01.075Z,100.00
2022-09-22T09:42:17.684Z,100.00
2022-09-22T09:45:28.585Z,100.00
2022-09-22T09:48:41.192Z,100.00
2022-09-22T09:51:49.671Z,100.00
2022-09-22T09:54:54.423Z,100.00
2022-09-22T09:58:11.507Z,100.00
2022-09-22T10:01:16.104Z,100.00
2022-09-22T10:04:32.274Z,100.00
2022-09-22T10:07:49.309Z,100.00
2022-09-22T10:11:00.749Z,100.00
2022-09-22T10:18:42.557Z,100.00
2022-09-22T10:21:46.419Z,100.00
2022-09-22T10:25:02.018Z,100.00
2022-09-22T10:28:09.460Z,100.00
2022-09-22T10:31:22.417Z,100.00
2022-09-22T10:34:31.655Z,100.00
2022-09-22T10:37:34.936Z,99.09
2022-09-22T10:40:43.486Z,100.00
2022-09-22T10:43:50.434Z,94.91
2022-09-22T10:47:26.735Z,93.40
2022-09-22T10:50:49.220Z,95.16
2022-09-22T10:54:09.601Z,93.43
2022-09-22T10:57:24.528Z,93.40
2022-09-22T11:00:28.733Z,87.59
2022-09-22T11:03:59.088Z,86.46
2022-09-22T11:07:43.565Z,85.67
2022-09-22T11:11:11.785Z,89.78
2022-09-22T11:14:31.813Z,84.03
2022-09-22T11:18:00.767Z,90.66
2022-09-22T11:21:14.806Z,91.21
2022-09-22T11:24:46.713Z,88.66
2022-09-22T11:28:08.850Z,88.26
2022-09-22T11:31:30.982Z,86.83
2022-09-22T11:35:12.171Z,83.17
2022-09-22T11:38:37.951Z,82.22
2022-09-22T11:41:43.208Z,83.26
2022-09-22T11:44:58.889Z,85.19
2022-09-22T11:48:13.874Z,91.64
2022-09-22T11:51:36.143Z,95.37
2022-09-22T11:55:06.309Z,99.31
2022-09-22T11:58:15.537Z,95.24
2022-09-22T12:01:22.044Z,88.37
2022-09-22T12:04:37.895Z,92.14
2022-09-22T12:07:50.492Z,88.98
2022-09-22T12:10:55.885Z,84.42
2022-09-22T12:14:01.063Z,85.21
2022-09-22T12:17:10.826Z,81.48
2022-09-22T12:20:30.118Z,83.55
2022-09-22T12:23:40.501Z,88.09
2022-09-22T12:26:46.477Z,85.99
2022-09-22T12:29:56.678Z,90.85
2022-09-22T12:32:59.717Z,82.19
2022-09-22T12:36:06.895Z,84.09
2022-09-22T12:39:16.414Z,85.80
2022-09-22T12:42:22.252Z,85.43
2022-09-22T12:45:33.502Z,83.47
2022-09-22T12:48:39.112Z,81.92
2022-09-22T12:51:43.570Z,79.87
2022-09-22T12:54:47.019Z,75.97
2022-09-22T12:57:51.737Z,74.25
2022-09-22T13:00:56.572Z,77.24
2022-09-22T13:04:20.721Z,86.18
2022-09-22T13:07:37.026Z,89.46
2022-09-22T13:11:05.061Z,93.41
2022-09-22T13:14:48.304Z,96.83
2022-09-22T13:17:52.534Z,90.20
2022-09-22T13:20:55.441Z,85.77
2022-09-22T13:24:02.360Z,85.84
2022-09-22T13:27:06.057Z,79.94
2022-09-22T13:30:13.968Z,73.55
2022-09-22T13:33:22.160Z,71.10
2022-09-22T13:36:25.445Z,70.24
2022-09-22T13:39:33.282Z,68.48
2022-09-22T13:42:38.227Z,69.74
2022-09-22T13:45:41.442Z,76.61
2022-09-22T13:48:45.334Z,79.47
2022-09-22T13:51:55.729Z,82.92
2022-09-22T13:55:09.891Z,83.61
2022-09-22T13:58:14.818Z,83.44
2022-09-22T14:01:20.614Z,77.15
2022-09-22T14:04:25.740Z,76.43
2022-09-22T14:07:31.352Z,77.67
2022-09-22T14:10:36.744Z,78.26
2022-09-22T14:13:42.693Z,78.78
2022-09-22T14:16:50.172Z,78.08
2022-09-22T14:19:57.731Z,79.98
2022-09-22T14:23:01.973Z,80.39
2022-09-22T14:26:24.834Z,75.82
2022-09-22T14:29:36.255Z,74.02
2022-09-22T14:32:44.530Z,77.31
2022-09-22T14:35:49.608Z,73.09
2022-09-22T14:39:10.047Z,71.53
2022-09-22T14:42:24.066Z,72.17
2022-09-22T14:45:32.285Z,71.13
2022-09-22T14:48:39.418Z,72.83
2022-09-22T14:51:50.349Z,75.84
2022-09-22T14:54:57.055Z,76.88
2022-09-22T14:58:06.592Z,80.31
2022-09-22T15:01:39.210Z,80.04
2022-09-22T15:04:47.116Z,72.83
2022-09-22T15:07:49.926Z,66.92
2022-09-22T15:10:54.162Z,67.78
2022-09-22T15:13:58.342Z,64.88
2022-09-22T15:17:21.590Z,68.60
2022-09-22T15:20:28.970Z,65.02
2022-09-22T15:23:37.375Z,65.11
2022-09-22T15:26:41.927Z,67.97
2022-09-22T15:29:46.237Z,66.86
2022-09-22T15:32:50.064Z,67.95
2022-09-22T15:35:56.536Z,69.02
2022-09-22T15:39:02.027Z,68.06
2022-09-22T15:42:08.492Z,68.30
2022-09-22T15:45:17.438Z,68.14
2022-09-22T15:48:27.717Z,74.00
2022-09-22T15:51:31.658Z,79.87
2022-09-22T15:54:34.851Z,79.81
2022-09-22T15:57:37.681Z,80.05
2022-09-22T16:00:42.307Z,76.01
2022-09-22T16:03:45.795Z,77.07
2022-09-22T16:06:52.737Z,76.55
2022-09-22T16:09:55.614Z,79.54
2022-09-22T16:12:59.216Z,83.95
2022-09-22T16:16:04.339Z,88.63
2022-09-22T16:19:07.939Z,90.88
2022-09-22T16:22:10.850Z,93.64
2022-09-22T16:25:15.638Z,97.41
2022-09-22T16:28:21.027Z,100.00
2022-09-22T16:31:26.061Z,100.00
2022-09-22T16:34:31.002Z,100.00
2022-09-22T16:37:36.056Z,100.00
2022-09-22T16:40:43.548Z,100.00
2022-09-22T16:43:54.924Z,100.00
2022-09-22T16:47:05.414Z,100.00
2022-09-22T16:50:10.507Z,100.00
2022-09-22T16:53:21.511Z,100.00
2022-09-22T16:56:39.288Z,100.00
2022-09-22T16:59:46.007Z,100.00
2022-09-22T17:02:55.516Z,100.00
2022-09-22T17:06:07.200Z,100.00
2022-09-22T17:09:40.067Z,100.00
2022-09-22T17:12:48.375Z,100.00
2022-09-22T17:16:10.387Z,100.00
2022-09-22T17:19:18.252Z,100.00
2022-09-22T17:22:43.897Z,100.00
2022-09-22T17:25:48.160Z,100.00
2022-09-22T17:28:54.049Z,100.00
2022-09-22T17:32:11.435Z,100.00
2022-09-22T17:35:25.423Z,100.00
2022-09-22T17:38:53.729Z,100.00
2022-09-22T17:42:05.035Z,100.00
2022-09-22T17:45:19.923Z,100.00
2022-09-22T17:48:55.797Z,100.00
2022-09-22T17:52:57.895Z,100.00
2022-09-22T17:56:31.018Z,100.00
2022-09-22T17:59:54.277Z,100.00
2022-09-22T18:03:07.436Z,100.00
2022-09-22T18:06:16.063Z,100.00
2022-09-22T18:09:40.192Z,100.00
2022-09-22T18:12:57.255Z,100.00
2022-09-22T18:16:38.237Z,100.00
2022-09-22T18:20:19.494Z,100.00
2022-09-22T18:23:34.210Z,100.00
2022-09-22T18:26:45.160Z,100.00
2022-09-22T18:29:54.415Z,100.00
2022-09-22T18:33:09.150Z,100.00
2022-09-22T18:36:16.045Z,100.00
2022-09-22T18:39:21.442Z,100.00
2022-09-22T18:42:27.750Z,100.00
2022-09-22T18:45:32.296Z,100.00
2022-09-22T18:48:36.048Z,100.00
2022-09-22T18:51:45.122Z,100.00
2022-09-22T18:54:48.813Z,100.00
2022-09-22T18:57:54.619Z,100.00
2022-09-22T19:00:57.828Z,100.00
2022-09-22T19:04:01.496Z,100.00
2022-09-22T19:07:22.349Z,100.00
2022-09-22T19:10:25.565Z,100.00
2022-09-22T19:13:31.339Z,100.00
2022-09-22T19:16:34.796Z,100.00
2022-09-22T19:19:42.248Z,100.00
2022-09-22T19:22:46.987Z,100.00
2022-09-22T19:25:51.711Z,100.00
2022-09-22T19:28:56.047Z,100.00
2022-09-22T19:31:59.977Z,100.00
2022-09-22T19:35:03.431Z,100.00
2022-09-22T19:38:12.898Z,100.00
2022-09-22T19:41:16.469Z,100.00
2022-09-22T19:44:23.205Z,100.00
2022-09-22T19:47:26.149Z,100.00
2022-09-22T19:50:29.390Z,100.00
2022-09-22T19:53:32.581Z,100.00
2022-09-22T19:56:35.966Z,100.00
2022-09-22T19:59:40.572Z,100.00
2022-09-22T20:02:44.279Z,100.00
2022-09-22T20:05:47.521Z,100.00
2022-09-22T20:08:54.126Z,100.00
2022-09-22T20:12:01.488Z,100.00
2022-09-22T20:15:06.917Z,100.00
2022-09-22T20:18:10.058Z,100.00
2022-09-22T20:21:15.850Z,100.00
2022-09-22T20:24:21.303Z,100.00
2022-09-22T20:27:26.042Z,100.00
2022-09-22T20:30:30.324Z,100.00
2022-09-22T20:33:33.416Z,100.00
2022-09-22T20:36:37.240Z,100.00
2022-09-22T20:39:40.616Z,100.00
2022-09-22T20:42:45.107Z,100.00
2022-09-22T20:45:49.395Z,100.00
2022-09-22T20:48:55.651Z,100.00
2022-09-22T20:51:59.691Z,100.00
2022-09-22T20:55:02.658Z,100.00
2022-09-22T20:58:05.869Z,100.00
2022-09-22T21:01:12.027Z,100.00
2022-09-22T21:04:16.352Z,100.00
2022-09-22T21:07:19.823Z,100.00
2022-09-22T21:10:36.655Z,100.00
2022-09-22T21:13:39.577Z,100.00
2022-09-22T21:16:43.893Z,100.00
2022-09-22T21:19:46.889Z,100.00
2022-09-22T21:22:49.813Z,100.00
2022-09-22T21:25:59.931Z,100.00
2022-09-22T21:29:02.772Z,100.00
2022-09-22T21:32:07.442Z,100.00
2022-09-22T21:35:10.661Z,100.00
2022-09-22T21:38:14.915Z,100.00
2022-09-22T21:41:20.423Z,100.00
2022-09-22T21:44:23.969Z,100.00
2022-09-22T21:47:28.137Z,100.00
2022-09-22T21:50:30.955Z,100.00
2022-09-22T21:53:34.821Z,100.00
2022-09-22T21:56:37.701Z,100.00
2022-09-22T21:59:40.769Z,100.00
2022-09-22T22:03:02.215Z,100.00
2022-09-22T22:06:10.456Z,100.00
2022-09-22T22:09:15.897Z,100.00
2022-09-22T22:12:18.723Z,100.00
2022-09-22T22:15:22.367Z,100.00
2022-09-22T22:18:26.547Z,100.00
2022-09-22T22:21:32.022Z,100.00
2022-09-22T22:24:40.243Z,100.00
2022-09-22T22:27:45.666Z,100.00
2022-09-22T22:30:48.694Z,100.00
2022-09-22T22:33:53.334Z,100.00
2022-09-22T22:36:58.001Z,100.00
2022-09-22T22:40:01.362Z,100.00
2022-09-22T22:43:04.176Z,100.00
2022-09-22T22:46:08.406Z,100.00
2022-09-22T22:49:12.694Z,100.00
2022-09-22T22:52:15.457Z,100.00
2022-09-22T22:55:18.227Z,100.00
2022-09-22T22:58:22.027Z,100.00
2022-09-22T23:01:26.951Z,100.00
2022-09-22T23:04:31.343Z,100.00
2022-09-22T23:07:34.365Z,100.00
2022-09-22T23:10:37.746Z,100.00
2022-09-22T23:13:41.806Z,100.00
2022-09-22T23:16:46.814Z,100.00
2022-09-22T23:19:51.469Z,100.00
2022-09-22T23:22:54.324Z,100.00
2022-09-22T23:25:57.494Z,100.00
2022-09-22T23:29:01.580Z,100.00
2022-09-22T23:32:04.622Z,100.00
2022-09-22T23:35:09.331Z,100.00
2022-09-22T23:38:17.280Z,100.00
2022-09-22T23:41:21.365Z,100.00
2022-09-22T23:44:24.139Z,100.00
2022-09-22T23:47:26.941Z,100.00
2022-09-22T23:50:31.064Z,100.00
2022-09-22T23:53:38.666Z,100.00
2022-09-22T23:56:41.550Z,100.00
2022-09-22T23:59:44.435Z,100.00
